WHSE22 YSHW-YBOK
Flight info
| Callsign | WHSE22 |
|---|---|
| Flight time | N/A |
| Altitude | 6000 |
| Route | YSHW DCT PSP DCT RIC DCT DUUKE DCT BOSUN DCT LALIB DCT YSTW DCT YGLI DCT YBOK |
| Aircraft | H60/M-SDFGRY/LB1 |
Departure
| Time | 2026-05-05 05:36 |
|---|---|
| Airport | Holsworthy (Military) Airport (YSHW) |
Arrival
| Time | N/A |
|---|---|
| Airport | Oakey Army Aviation Centre (YBOK) |
| Time | Latitude | Longitude | Altitude | Speed | Heading |
|---|---|---|---|---|---|
| 2026-05-05 05:33 | -33.99541 | 150.95375 | 250 ft | 0 kts | 301° |
| 2026-05-05 05:34 | -33.99534 | 150.95360 | 251 ft | 5 kts | 293° |
| 2026-05-05 05:35 | -33.99559 | 150.95317 | 253 ft | 9 kts | 216° |
| 2026-05-05 05:35 | -33.99603 | 150.95283 | 254 ft | 0 kts | 206° |
| 2026-05-05 05:35 | -33.99679 | 150.95231 | 315 ft | 26 kts | 186° |
| 2026-05-05 05:35 | -33.99915 | 150.94938 | 542 ft | 83 kts | 228° |
| 2026-05-05 05:36 | -33.99815 | 150.94100 | 705 ft | 119 kts | 296° |
| 2026-05-05 05:36 | -33.99096 | 150.93486 | 599 ft | 133 kts | 329° |
| 2026-05-05 05:36 | -33.98289 | 150.92973 | 567 ft | 131 kts | 329° |
| 2026-05-05 05:36 | -33.97465 | 150.92509 | 571 ft | 129 kts | 337° |
| 2026-05-05 05:37 | -33.96589 | 150.92227 | 623 ft | 131 kts | 345° |
| 2026-05-05 05:37 | -33.95711 | 150.91978 | 661 ft | 131 kts | 346° |
| 2026-05-05 05:37 | -33.94797 | 150.91829 | 681 ft | 133 kts | 353° |
| 2026-05-05 05:37 | -33.93879 | 150.91742 | 638 ft | 134 kts | 352° |
| 2026-05-05 05:38 | -33.92940 | 150.91582 | 545 ft | 136 kts | 348° |
| 2026-05-05 05:38 | -33.92016 | 150.91348 | 423 ft | 138 kts | 343° |
| 2026-05-05 05:38 | -33.91090 | 150.91049 | 388 ft | 137 kts | 344° |
| 2026-05-05 05:38 | -33.90178 | 150.90914 | 733 ft | 134 kts | 5° |
| 2026-05-05 05:39 | -33.89244 | 150.91143 | 866 ft | 142 kts | 12° |
| 2026-05-05 05:39 | -33.88249 | 150.91406 | 900 ft | 149 kts | 11° |
| 2026-05-05 05:39 | -33.87232 | 150.91686 | 817 ft | 154 kts | 12° |
| 2026-05-05 05:39 | -33.86171 | 150.91921 | 724 ft | 150 kts | 5° |
| 2026-05-05 05:40 | -33.85156 | 150.91892 | 820 ft | 145 kts | 355° |
| 2026-05-05 05:40 | -33.84147 | 150.91824 | 829 ft | 148 kts | 354° |
| 2026-05-05 05:40 | -33.83124 | 150.91710 | 819 ft | 149 kts | 352° |
| 2026-05-05 05:40 | -33.82112 | 150.91469 | 848 ft | 144 kts | 338° |
| 2026-05-05 05:41 | -33.81247 | 150.90903 | 903 ft | 144 kts | 330° |
| 2026-05-05 05:41 | -33.80334 | 150.90355 | 826 ft | 150 kts | 330° |
| 2026-05-05 05:41 | -33.79417 | 150.89711 | 685 ft | 153 kts | 327° |
| 2026-05-05 05:41 | -33.78487 | 150.89088 | 603 ft | 154 kts | 330° |
| 2026-05-05 05:42 | -33.77526 | 150.88520 | 605 ft | 150 kts | 333° |
| 2026-05-05 05:42 | -33.76608 | 150.87983 | 672 ft | 146 kts | 332° |
| 2026-05-05 05:42 | -33.75717 | 150.87433 | 752 ft | 142 kts | 331° |
| 2026-05-05 05:42 | -33.74848 | 150.86878 | 902 ft | 141 kts | 330° |
| 2026-05-05 05:43 | -33.73990 | 150.86318 | 1069 ft | 141 kts | 329° |
| 2026-05-05 05:43 | -33.73144 | 150.85734 | 1187 ft | 142 kts | 327° |
| 2026-05-05 05:43 | -33.72295 | 150.85103 | 1275 ft | 144 kts | 326° |
| 2026-05-05 05:43 | -33.71437 | 150.84451 | 1291 ft | 145 kts | 327° |
| 2026-05-05 05:44 | -33.70596 | 150.83826 | 1426 ft | 141 kts | 328° |
| 2026-05-05 05:44 | -33.69771 | 150.83232 | 1739 ft | 135 kts | 329° |
| 2026-05-05 05:44 | -33.68974 | 150.82707 | 2124 ft | 129 kts | 331° |
| 2026-05-05 05:44 | -33.68182 | 150.82236 | 2527 ft | 125 kts | 333° |
| 2026-05-05 05:45 | -33.67364 | 150.81787 | 2245 ft | 135 kts | 334° |
| 2026-05-05 05:45 | -33.66546 | 150.81392 | 2092 ft | 120 kts | 339° |
| 2026-05-05 05:45 | -33.65718 | 150.81048 | 2027 ft | 138 kts | 341° |
| 2026-05-05 05:45 | -33.64767 | 150.80664 | 1887 ft | 151 kts | 341° |
| 2026-05-05 05:46 | -33.63729 | 150.80220 | 1587 ft | 162 kts | 340° |
| 2026-05-05 05:46 | -33.62676 | 150.79728 | 1298 ft | 163 kts | 338° |
| 2026-05-05 05:46 | -33.61654 | 150.79173 | 1159 ft | 158 kts | 333° |
| 2026-05-05 05:46 | -33.60716 | 150.78591 | 1172 ft | 150 kts | 333° |
| 2026-05-05 05:47 | -33.59724 | 150.78256 | 1154 ft | 147 kts | 353° |
| 2026-05-05 05:47 | -33.58694 | 150.78231 | 1142 ft | 147 kts | 0° |
| 2026-05-05 05:47 | -33.57686 | 150.78205 | 1297 ft | 144 kts | 359° |
| 2026-05-05 05:47 | -33.56705 | 150.78144 | 1589 ft | 137 kts | 357° |
| 2026-05-05 05:48 | -33.55774 | 150.78066 | 1964 ft | 133 kts | 356° |
| 2026-05-05 05:48 | -33.54854 | 150.78042 | 2358 ft | 131 kts | 2° |
| 2026-05-05 05:48 | -33.53954 | 150.78176 | 2752 ft | 132 kts | 10° |
| 2026-05-05 05:48 | -33.53035 | 150.78390 | 2958 ft | 137 kts | 9° |
| 2026-05-05 05:49 | -33.52082 | 150.78555 | 2707 ft | 140 kts | 5° |
| 2026-05-05 05:49 | -33.51097 | 150.78615 | 2327 ft | 146 kts | 3° |
| 2026-05-05 05:49 | -33.50034 | 150.78683 | 2021 ft | 159 kts | 3° |
| 2026-05-05 05:49 | -33.48902 | 150.78716 | 1862 ft | 164 kts | 360° |
| 2026-05-05 05:50 | -33.47759 | 150.78667 | 1807 ft | 163 kts | 356° |
| 2026-05-05 05:50 | -33.46652 | 150.78540 | 1783 ft | 160 kts | 353° |
| 2026-05-05 05:50 | -33.45546 | 150.78338 | 1762 ft | 160 kts | 349° |
| 2026-05-05 05:50 | -33.44445 | 150.78085 | 1762 ft | 160 kts | 349° |
| 2026-05-05 05:51 | -33.43354 | 150.77907 | 1767 ft | 159 kts | 353° |
| 2026-05-05 05:51 | -33.42255 | 150.77759 | 1767 ft | 159 kts | 352° |
| 2026-05-05 05:51 | -33.41167 | 150.77566 | 1782 ft | 159 kts | 350° |
| 2026-05-05 05:51 | -33.40086 | 150.77326 | 1809 ft | 159 kts | 347° |
| 2026-05-05 05:52 | -33.39008 | 150.77039 | 1845 ft | 158 kts | 346° |
| 2026-05-05 05:52 | -33.37940 | 150.76706 | 1849 ft | 158 kts | 344° |
| 2026-05-05 05:52 | -33.36892 | 150.76334 | 1842 ft | 158 kts | 342° |
| 2026-05-05 05:52 | -33.35809 | 150.76071 | 1861 ft | 158 kts | 352° |
| 2026-05-05 05:53 | -33.34726 | 150.76045 | 1893 ft | 156 kts | 2° |
| 2026-05-05 05:53 | -33.33664 | 150.76167 | 1955 ft | 154 kts | 7° |
| 2026-05-05 05:53 | -33.32601 | 150.76398 | 2007 ft | 154 kts | 12° |
| 2026-05-05 05:53 | -33.31551 | 150.76711 | 2054 ft | 156 kts | 13° |
| 2026-05-05 05:54 | -33.30492 | 150.77046 | 2068 ft | 157 kts | 14° |
| 2026-05-05 05:54 | -33.29439 | 150.77379 | 2063 ft | 158 kts | 14° |
| 2026-05-05 05:54 | -33.28382 | 150.77719 | 2066 ft | 159 kts | 14° |
| 2026-05-05 05:54 | -33.27319 | 150.78058 | 2095 ft | 158 kts | 14° |
| 2026-05-05 05:55 | -33.26259 | 150.78416 | 2109 ft | 157 kts | 15° |
| 2026-05-05 05:55 | -33.25227 | 150.78810 | 2128 ft | 156 kts | 18° |
| 2026-05-05 05:55 | -33.24191 | 150.79237 | 2159 ft | 157 kts | 17° |
| 2026-05-05 05:55 | -33.23136 | 150.79459 | 2172 ft | 156 kts | 2° |
| 2026-05-05 05:56 | -33.22028 | 150.79527 | 2104 ft | 161 kts | 0° |
| 2026-05-05 05:56 | -33.20909 | 150.79519 | 2025 ft | 162 kts | 357° |
| 2026-05-05 05:56 | -33.19773 | 150.79451 | 1961 ft | 162 kts | 354° |
| 2026-05-05 05:56 | -33.18642 | 150.79448 | 1912 ft | 161 kts | 0° |
| 2026-05-05 05:57 | -33.17536 | 150.79534 | 1885 ft | 159 kts | 2° |
| 2026-05-05 05:57 | -33.16438 | 150.79660 | 1920 ft | 158 kts | 5° |
| 2026-05-05 05:57 | -33.15359 | 150.79845 | 1989 ft | 157 kts | 7° |
| 2026-05-05 05:57 | -33.14292 | 150.80080 | 2035 ft | 155 kts | 9° |
| 2026-05-05 05:58 | -33.13244 | 150.80367 | 2047 ft | 156 kts | 12° |
| 2026-05-05 05:58 | -33.12195 | 150.80715 | 2053 ft | 158 kts | 14° |
| 2026-05-05 05:58 | -33.11138 | 150.81023 | 2077 ft | 152 kts | 5° |
| 2026-05-05 05:58 | -33.10114 | 150.81018 | 2183 ft | 147 kts | 355° |
| 2026-05-05 05:59 | -33.09082 | 150.80979 | 2343 ft | 147 kts | 356° |
| 2026-05-05 05:59 | -33.08068 | 150.80943 | 2489 ft | 147 kts | 356° |
| 2026-05-05 05:59 | -33.07036 | 150.80910 | 2619 ft | 148 kts | 355° |
| 2026-05-05 05:59 | -33.06008 | 150.80879 | 2691 ft | 148 kts | 356° |
| 2026-05-05 06:00 | -33.04984 | 150.80847 | 2754 ft | 150 kts | 356° |
| 2026-05-05 06:00 | -33.03936 | 150.80812 | 2831 ft | 151 kts | 356° |
| 2026-05-05 06:00 | -33.02884 | 150.80772 | 2911 ft | 151 kts | 355° |
| 2026-05-05 06:00 | -33.01835 | 150.80724 | 2998 ft | 150 kts | 355° |
| 2026-05-05 06:01 | -33.00796 | 150.80683 | 3068 ft | 151 kts | 355° |
| 2026-05-05 06:01 | -32.99734 | 150.80650 | 3113 ft | 153 kts | 356° |
| 2026-05-05 06:01 | -32.98678 | 150.80590 | 3148 ft | 153 kts | 350° |
| 2026-05-05 06:01 | -32.97631 | 150.80308 | 3139 ft | 153 kts | 344° |
| 2026-05-05 06:02 | -32.96591 | 150.80028 | 3095 ft | 157 kts | 343° |
| 2026-05-05 06:02 | -32.95485 | 150.79803 | 2988 ft | 163 kts | 353° |
| 2026-05-05 06:02 | -32.94362 | 150.79666 | 2850 ft | 164 kts | 349° |
| 2026-05-05 06:02 | -32.93231 | 150.79468 | 2751 ft | 163 kts | 348° |
| 2026-05-05 06:03 | -32.92116 | 150.79248 | 2684 ft | 162 kts | 347° |
| 2026-05-05 06:03 | -32.91012 | 150.79015 | 2617 ft | 161 kts | 347° |
| 2026-05-05 06:03 | -32.89907 | 150.78833 | 2542 ft | 162 kts | 351° |
| 2026-05-05 06:03 | -32.88778 | 150.78702 | 2463 ft | 162 kts | 353° |
| 2026-05-05 06:04 | -32.87654 | 150.78620 | 2406 ft | 164 kts | 355° |
| 2026-05-05 06:04 | -32.86511 | 150.78550 | 2372 ft | 162 kts | 353° |
| 2026-05-05 06:04 | -32.85392 | 150.78452 | 2341 ft | 162 kts | 353° |
| 2026-05-05 06:04 | -32.84275 | 150.78341 | 2286 ft | 160 kts | 352° |
| 2026-05-05 06:05 | -32.83186 | 150.78177 | 2232 ft | 159 kts | 349° |
| 2026-05-05 06:05 | -32.82441 | 150.78060 | 2192 ft | 159 kts | 351° |
| 2026-05-05 06:05 | -32.81343 | 150.77931 | 2156 ft | 161 kts | 352° |
| 2026-05-05 06:05 | -32.80227 | 150.77830 | 2140 ft | 160 kts | 354° |
| 2026-05-05 06:06 | -32.79132 | 150.77759 | 2114 ft | 159 kts | 354° |
| 2026-05-05 06:06 | -32.78039 | 150.77573 | 2094 ft | 159 kts | 347° |
| 2026-05-05 06:06 | -32.76577 | 150.77352 | 2121 ft | 159 kts | 352° |
| 2026-05-05 06:06 | -32.75843 | 150.77297 | 2144 ft | 157 kts | 354° |
| 2026-05-05 06:07 | -32.74745 | 150.77285 | 2163 ft | 157 kts | 358° |
| 2026-05-05 06:07 | -32.73655 | 150.77353 | 2186 ft | 158 kts | 0° |
| 2026-05-05 06:07 | -32.72558 | 150.77411 | 2188 ft | 159 kts | 0° |
| 2026-05-05 06:07 | -32.71445 | 150.77429 | 2195 ft | 158 kts | 354° |
| 2026-05-05 06:08 | -32.70366 | 150.77238 | 2176 ft | 157 kts | 345° |
| 2026-05-05 06:08 | -32.69336 | 150.76827 | 2170 ft | 157 kts | 334° |
| 2026-05-05 06:08 | -32.68333 | 150.76333 | 2172 ft | 157 kts | 337° |
| 2026-05-05 06:08 | -32.67291 | 150.75936 | 2188 ft | 156 kts | 341° |
| 2026-05-05 06:09 | -32.66230 | 150.75643 | 2198 ft | 156 kts | 346° |
| 2026-05-05 06:09 | -32.65178 | 150.75400 | 2226 ft | 153 kts | 345° |
| 2026-05-05 06:09 | -32.64124 | 150.75139 | 2294 ft | 154 kts | 346° |
| 2026-05-05 06:09 | -32.63084 | 150.74875 | 2379 ft | 153 kts | 345° |
| 2026-05-05 06:10 | -32.62054 | 150.74602 | 2444 ft | 152 kts | 344° |
| 2026-05-05 06:10 | -32.61023 | 150.74318 | 2490 ft | 152 kts | 343° |
| 2026-05-05 06:10 | -32.59994 | 150.74024 | 2562 ft | 154 kts | 343° |
| 2026-05-05 06:10 | -32.58948 | 150.73715 | 2621 ft | 154 kts | 343° |
| 2026-05-05 06:11 | -32.57907 | 150.73396 | 2660 ft | 154 kts | 343° |
| 2026-05-05 06:11 | -32.56875 | 150.73065 | 2700 ft | 154 kts | 341° |
| 2026-05-05 06:11 | -32.55849 | 150.72722 | 2729 ft | 154 kts | 341° |
| 2026-05-05 06:11 | -32.54818 | 150.72362 | 2748 ft | 153 kts | 340° |
| 2026-05-05 06:12 | -32.53802 | 150.71991 | 2758 ft | 154 kts | 339° |
| 2026-05-05 06:12 | -32.52768 | 150.71634 | 2777 ft | 156 kts | 345° |
| 2026-05-05 06:12 | -32.51683 | 150.71652 | 2755 ft | 160 kts | 5° |
| 2026-05-05 06:12 | -32.50588 | 150.71999 | 2712 ft | 164 kts | 15° |
| 2026-05-05 06:13 | -32.49481 | 150.72377 | 2672 ft | 165 kts | 13° |
| 2026-05-05 06:13 | -32.48390 | 150.72730 | 2612 ft | 164 kts | 11° |
| 2026-05-05 06:13 | -32.47283 | 150.73040 | 2550 ft | 162 kts | 11° |
| 2026-05-05 06:13 | -32.46191 | 150.73329 | 2497 ft | 160 kts | 9° |
| 2026-05-05 06:14 | -32.45110 | 150.73585 | 2441 ft | 159 kts | 7° |
| 2026-05-05 06:14 | -32.44012 | 150.73817 | 2419 ft | 160 kts | 6° |
| 2026-05-05 06:14 | -32.42912 | 150.74037 | 2382 ft | 159 kts | 6° |
| 2026-05-05 06:14 | -32.41825 | 150.74243 | 2326 ft | 160 kts | 6° |
| 2026-05-05 06:15 | -32.40735 | 150.74491 | 2273 ft | 161 kts | 9° |
| 2026-05-05 06:15 | -32.39639 | 150.74817 | 2248 ft | 162 kts | 12° |
| 2026-05-05 06:15 | -32.38570 | 150.75202 | 2240 ft | 162 kts | 14° |
| 2026-05-05 06:15 | -32.37505 | 150.75652 | 2253 ft | 161 kts | 17° |
| 2026-05-05 06:16 | -32.36456 | 150.76105 | 2266 ft | 162 kts | 17° |
| 2026-05-05 06:16 | -32.35386 | 150.76521 | 2229 ft | 163 kts | 13° |
| 2026-05-05 06:16 | -32.34283 | 150.76877 | 2182 ft | 163 kts | 11° |
| 2026-05-05 06:16 | -32.33183 | 150.77138 | 2111 ft | 162 kts | 6° |
| 2026-05-05 06:17 | -32.32058 | 150.77314 | 2047 ft | 161 kts | 3° |
| 2026-05-05 06:17 | -32.30958 | 150.77443 | 2007 ft | 160 kts | 1° |
| 2026-05-05 06:17 | -32.29849 | 150.77521 | 1981 ft | 159 kts | 359° |
| 2026-05-05 06:17 | -32.28766 | 150.77685 | 2016 ft | 157 kts | 8° |
| 2026-05-05 06:18 | -32.27688 | 150.77974 | 2086 ft | 157 kts | 10° |
| 2026-05-05 06:18 | -32.26637 | 150.78246 | 2174 ft | 156 kts | 9° |
| 2026-05-05 06:18 | -32.25562 | 150.78481 | 2254 ft | 155 kts | 6° |
| 2026-05-05 06:18 | -32.24506 | 150.78686 | 2299 ft | 156 kts | 7° |
| 2026-05-05 06:19 | -32.23431 | 150.78925 | 2331 ft | 156 kts | 8° |
| 2026-05-05 06:19 | -32.22381 | 150.79218 | 2338 ft | 158 kts | 13° |
| 2026-05-05 06:19 | -32.21347 | 150.79703 | 2327 ft | 160 kts | 21° |
| 2026-05-05 06:19 | -32.20336 | 150.80228 | 2326 ft | 160 kts | 21° |
| 2026-05-05 06:20 | -32.19306 | 150.80742 | 2334 ft | 160 kts | 20° |
| 2026-05-05 06:20 | -32.18284 | 150.81225 | 2332 ft | 160 kts | 17° |
| 2026-05-05 06:20 | -32.17226 | 150.81637 | 2311 ft | 160 kts | 17° |
| 2026-05-05 06:20 | -32.16205 | 150.82131 | 2288 ft | 160 kts | 21° |
| 2026-05-05 06:21 | -32.15176 | 150.82672 | 2277 ft | 161 kts | 19° |
| 2026-05-05 06:21 | -32.14122 | 150.83043 | 2270 ft | 159 kts | 11° |
| 2026-05-05 06:21 | -32.13035 | 150.83315 | 2268 ft | 159 kts | 11° |
| 2026-05-05 06:21 | -32.11970 | 150.83634 | 2293 ft | 159 kts | 12° |
| 2026-05-05 06:22 | -32.10882 | 150.83891 | 2316 ft | 158 kts | 6° |
| 2026-05-05 06:22 | -32.09805 | 150.84049 | 2300 ft | 158 kts | 5° |
| 2026-05-05 06:22 | -32.08706 | 150.84181 | 2313 ft | 158 kts | 3° |
| 2026-05-05 06:22 | -32.07620 | 150.84272 | 2333 ft | 157 kts | 1° |
| 2026-05-05 06:23 | -32.06525 | 150.84323 | 2433 ft | 156 kts | 359° |
| 2026-05-05 06:23 | -32.05463 | 150.84339 | 2631 ft | 152 kts | 358° |
| 2026-05-05 06:23 | -32.04413 | 150.84327 | 2835 ft | 150 kts | 357° |
| 2026-05-05 06:23 | -32.03360 | 150.84296 | 3004 ft | 152 kts | 356° |
| 2026-05-05 06:24 | -32.02292 | 150.84296 | 3087 ft | 159 kts | 359° |
| 2026-05-05 06:24 | -32.01133 | 150.84313 | 2907 ft | 171 kts | 359° |
| 2026-05-05 06:24 | -31.99939 | 150.84302 | 2664 ft | 175 kts | 359° |
| 2026-05-05 06:24 | -31.98714 | 150.84312 | 2485 ft | 173 kts | 358° |
| 2026-05-05 06:25 | -31.97522 | 150.84317 | 2367 ft | 172 kts | 359° |
| 2026-05-05 06:25 | -31.96325 | 150.84327 | 2240 ft | 171 kts | 359° |
| 2026-05-05 06:25 | -31.95169 | 150.84330 | 2284 ft | 164 kts | 358° |
| 2026-05-05 06:25 | -31.94054 | 150.84337 | 2474 ft | 156 kts | 0° |
| 2026-05-05 06:26 | -31.92988 | 150.84436 | 2691 ft | 154 kts | 4° |
| 2026-05-05 06:26 | -31.91919 | 150.84589 | 2860 ft | 154 kts | 6° |
| 2026-05-05 06:26 | -31.90856 | 150.84789 | 2982 ft | 157 kts | 9° |
| 2026-05-05 06:26 | -31.89756 | 150.84959 | 3063 ft | 160 kts | 3° |
| 2026-05-05 06:27 | -31.88643 | 150.84965 | 3092 ft | 164 kts | 357° |
| 2026-05-05 06:27 | -31.86259 | 150.84902 | 2893 ft | 184 kts | 1° |
| 2026-05-05 06:27 | -31.84955 | 150.85091 | 2796 ft | 189 kts | 8° |
| 2026-05-05 06:28 | -31.83708 | 150.85263 | 3106 ft | 173 kts | 5° |
| 2026-05-05 06:28 | -31.82550 | 150.85352 | 3673 ft | 163 kts | 2° |
| 2026-05-05 06:28 | -31.81329 | 150.85279 | 3604 ft | 194 kts | 353° |
| 2026-05-05 06:28 | -31.79947 | 150.84923 | 2653 ft | 206 kts | 347° |
| 2026-05-05 06:29 | -31.78591 | 150.84679 | 2570 ft | 186 kts | 352° |
| 2026-05-05 06:29 | -31.77368 | 150.84390 | 2887 ft | 179 kts | 346° |
| 2026-05-05 06:29 | -31.76169 | 150.83992 | 3039 ft | 178 kts | 342° |
| 2026-05-05 06:29 | -31.75039 | 150.83607 | 3526 ft | 163 kts | 346° |
| 2026-05-05 06:30 | -31.73920 | 150.83569 | 4071 ft | 164 kts | 1° |
| 2026-05-05 06:30 | -31.72689 | 150.83568 | 3938 ft | 193 kts | 357° |
| 2026-05-05 06:30 | -31.71277 | 150.83418 | 3114 ft | 205 kts | 353° |
| 2026-05-05 06:30 | -31.69922 | 150.83388 | 3022 ft | 191 kts | 2° |
| 2026-05-05 06:31 | -31.68566 | 150.83537 | 2839 ft | 196 kts | 5° |
| 2026-05-05 06:31 | -31.67242 | 150.83759 | 2772 ft | 190 kts | 12° |
| 2026-05-05 06:31 | -31.65969 | 150.83998 | 2885 ft | 185 kts | 7° |
| 2026-05-05 06:31 | -31.64689 | 150.84043 | 3277 ft | 179 kts | 358° |
| 2026-05-05 06:32 | -31.63481 | 150.83866 | 3815 ft | 173 kts | 349° |
| 2026-05-05 06:32 | -31.62337 | 150.83496 | 4351 ft | 168 kts | 340° |
| 2026-05-05 06:32 | -31.61280 | 150.82953 | 4839 ft | 168 kts | 332° |
| 2026-05-05 06:32 | -31.60207 | 150.82370 | 5108 ft | 177 kts | 342° |
| 2026-05-05 06:33 | -31.58928 | 150.82521 | 4850 ft | 200 kts | 10° |
| 2026-05-05 06:33 | -31.57473 | 150.82843 | 3808 ft | 216 kts | 7° |
| 2026-05-05 06:33 | -31.56056 | 150.82995 | 3592 ft | 190 kts | 7° |
| 2026-05-05 06:33 | -31.54854 | 150.83162 | 4315 ft | 163 kts | 5° |
| 2026-05-05 06:34 | -31.53789 | 150.83333 | 5222 ft | 147 kts | 6° |
| 2026-05-05 06:34 | -31.52775 | 150.83557 | 5903 ft | 157 kts | 8° |
| 2026-05-05 06:34 | -31.51660 | 150.83796 | 5324 ft | 172 kts | 5° |
| 2026-05-05 06:34 | -31.50429 | 150.83997 | 4723 ft | 181 kts | 6° |
| 2026-05-05 06:35 | -31.49220 | 150.84357 | 4794 ft | 182 kts | 15° |
| 2026-05-05 06:35 | -31.47940 | 150.84754 | 4511 ft | 196 kts | 11° |
| 2026-05-05 06:35 | -31.46582 | 150.85048 | 4053 ft | 196 kts | 7° |
| 2026-05-05 06:35 | -31.45286 | 150.85347 | 4008 ft | 190 kts | 11° |
| 2026-05-05 06:36 | -31.44024 | 150.85809 | 3901 ft | 193 kts | 18° |
| 2026-05-05 06:36 | -31.42670 | 150.86161 | 3517 ft | 201 kts | 8° |
| 2026-05-05 06:36 | -31.41274 | 150.86339 | 2999 ft | 207 kts | 5° |
| 2026-05-05 06:36 | -31.39818 | 150.86422 | 2522 ft | 207 kts | 2° |
| 2026-05-05 06:37 | -31.38403 | 150.86482 | 2472 ft | 197 kts | 2° |
| 2026-05-05 06:37 | -31.37057 | 150.86499 | 2651 ft | 195 kts | 359° |
| 2026-05-05 06:37 | -31.35703 | 150.86453 | 2686 ft | 199 kts | 359° |
| 2026-05-05 06:37 | -31.34279 | 150.86423 | 2376 ft | 208 kts | 359° |
| 2026-05-05 06:38 | -31.32873 | 150.86329 | 2241 ft | 195 kts | 355° |
| 2026-05-05 06:38 | -31.31540 | 150.86279 | 2624 ft | 193 kts | 359° |
| 2026-05-05 06:38 | -31.30141 | 150.86186 | 2323 ft | 208 kts | 356° |
| 2026-05-05 06:38 | -31.28769 | 150.86006 | 2411 ft | 191 kts | 353° |
| 2026-05-05 06:39 | -31.27421 | 150.85806 | 2537 ft | 199 kts | 352° |
| 2026-05-05 06:39 | -31.26032 | 150.85558 | 2374 ft | 201 kts | 351° |
| 2026-05-05 06:39 | -31.24676 | 150.85314 | 2364 ft | 197 kts | 351° |
| 2026-05-05 06:39 | -31.23307 | 150.85087 | 2379 ft | 198 kts | 352° |
| 2026-05-05 06:40 | -31.21944 | 150.84879 | 2306 ft | 200 kts | 352° |
| 2026-05-05 06:40 | -31.20568 | 150.84828 | 2213 ft | 199 kts | 5° |
| 2026-05-05 06:40 | -31.19324 | 150.85494 | 2160 ft | 194 kts | 33° |
| 2026-05-05 06:40 | -31.18186 | 150.86315 | 2402 ft | 192 kts | 32° |
| 2026-05-05 06:41 | -31.17042 | 150.87148 | 2467 ft | 198 kts | 32° |
| 2026-05-05 06:41 | -31.15845 | 150.88015 | 2283 ft | 203 kts | 32° |
| 2026-05-05 06:41 | -31.14667 | 150.88850 | 2372 ft | 194 kts | 33° |
| 2026-05-05 06:41 | -31.13530 | 150.89691 | 2479 ft | 195 kts | 32° |
| 2026-05-05 06:42 | -31.12353 | 150.90498 | 2451 ft | 199 kts | 30° |
| 2026-05-05 06:42 | -31.11162 | 150.91346 | 2338 ft | 200 kts | 34° |
| 2026-05-05 06:42 | -31.10138 | 150.92412 | 2282 ft | 198 kts | 46° |
| 2026-05-05 06:42 | -31.09204 | 150.93592 | 2283 ft | 198 kts | 46° |
| 2026-05-05 06:43 | -31.08029 | 150.94323 | 2156 ft | 191 kts | 2° |
| 2026-05-05 06:43 | -31.07173 | 150.93439 | 2338 ft | 163 kts | 290° |
| 2026-05-05 06:43 | -31.07271 | 150.92142 | 2690 ft | 168 kts | 258° |
| 2026-05-05 06:43 | -31.07511 | 150.90801 | 2350 ft | 169 kts | 257° |
| 2026-05-05 06:44 | -31.07743 | 150.89423 | 2359 ft | 179 kts | 259° |
| 2026-05-05 06:44 | -31.08011 | 150.88017 | 2322 ft | 180 kts | 258° |
| 2026-05-05 06:44 | -31.08237 | 150.86647 | 1984 ft | 158 kts | 263° |
| 2026-05-05 06:44 | -31.08038 | 150.85524 | 1923 ft | 129 kts | 294° |
| 2026-05-05 06:45 | -31.07882 | 150.84657 | 1919 ft | 91 kts | 252° |
| 2026-05-05 06:45 | -31.08275 | 150.84569 | 1692 ft | 68 kts | 115° |
| 2026-05-05 06:45 | -31.08379 | 150.84922 | 1532 ft | 25 kts | 112° |
| 2026-05-05 06:45 | -31.08464 | 150.85013 | 1398 ft | 12 kts | 113° |
| 2026-05-05 06:46 | -31.08500 | 150.85054 | 1370 ft | 5 kts | 130° |
| 2026-05-05 06:46 | -31.08525 | 150.85059 | 1367 ft | 7 kts | 297° |
| 2026-05-05 06:46 | -31.08522 | 150.85053 | 1361 ft | 3 kts | 320° |
| 2026-05-05 06:46 | -31.08526 | 150.85057 | 1356 ft | 0 kts | 316° |
| 2026-05-05 07:09 | -31.08503 | 150.85041 | 1349 ft | 9 kts | 343° |
| 2026-05-05 07:10 | -31.08428 | 150.85016 | 1347 ft | 0 kts | 28° |
| 2026-05-05 07:10 | -31.08422 | 150.85020 | 1347 ft | 4 kts | 33° |
| 2026-05-05 07:10 | -31.08367 | 150.85000 | 1345 ft | 14 kts | 314° |
| 2026-05-05 07:10 | -31.08305 | 150.85003 | 1343 ft | 12 kts | 46° |
| 2026-05-05 07:11 | -31.08231 | 150.85070 | 1344 ft | 15 kts | 19° |
| 2026-05-05 07:11 | -31.08153 | 150.85015 | 1342 ft | 18 kts | 318° |
| 2026-05-05 07:11 | -31.08031 | 150.84863 | 1364 ft | 37 kts | 314° |
| 2026-05-05 07:11 | -31.07670 | 150.84612 | 1500 ft | 87 kts | 339° |
| 2026-05-05 07:12 | -31.07019 | 150.84644 | 1874 ft | 103 kts | 13° |
| 2026-05-05 07:12 | -31.06208 | 150.84904 | 2252 ft | 138 kts | 15° |
| 2026-05-05 07:12 | -31.05218 | 150.85266 | 2264 ft | 157 kts | 19° |
| 2026-05-05 07:12 | -31.04167 | 150.85725 | 2317 ft | 162 kts | 23° |
| 2026-05-05 07:13 | -31.03148 | 150.86301 | 2318 ft | 168 kts | 27° |
| 2026-05-05 07:13 | -31.02109 | 150.86915 | 2374 ft | 163 kts | 27° |
| 2026-05-05 07:13 | -31.01104 | 150.87492 | 2546 ft | 158 kts | 27° |
| 2026-05-05 07:13 | -31.00139 | 150.88043 | 2735 ft | 155 kts | 27° |
| 2026-05-05 07:14 | -30.99170 | 150.88603 | 2903 ft | 155 kts | 27° |
| 2026-05-05 07:14 | -30.98198 | 150.89173 | 3047 ft | 156 kts | 27° |
| 2026-05-05 07:14 | -30.97226 | 150.89748 | 3167 ft | 158 kts | 27° |
| 2026-05-05 07:14 | -30.96251 | 150.90327 | 3255 ft | 159 kts | 27° |
| 2026-05-05 07:15 | -30.95268 | 150.90908 | 3334 ft | 160 kts | 27° |
| 2026-05-05 07:15 | -30.94268 | 150.91493 | 3406 ft | 161 kts | 27° |
| 2026-05-05 07:15 | -30.93261 | 150.92075 | 3449 ft | 161 kts | 26° |
| 2026-05-05 07:15 | -30.92226 | 150.92647 | 3636 ft | 171 kts | 25° |
| 2026-05-05 07:16 | -30.91137 | 150.93308 | 3794 ft | 181 kts | 30° |
| 2026-05-05 07:16 | -30.90078 | 150.94151 | 3862 ft | 186 kts | 37° |
| 2026-05-05 07:16 | -30.89091 | 150.95109 | 3927 ft | 187 kts | 41° |
| 2026-05-05 07:16 | -30.88156 | 150.96160 | 4037 ft | 185 kts | 45° |
| 2026-05-05 07:17 | -30.87277 | 150.97230 | 4171 ft | 183 kts | 43° |
| 2026-05-05 07:17 | -30.86157 | 150.97966 | 4185 ft | 186 kts | 29° |
| 2026-05-05 07:17 | -30.85039 | 150.98728 | 4213 ft | 187 kts | 28° |
| 2026-05-05 07:17 | -30.83916 | 150.99475 | 4256 ft | 187 kts | 32° |
| 2026-05-05 07:18 | -30.82789 | 151.00236 | 4279 ft | 186 kts | 25° |
| 2026-05-05 07:18 | -30.81664 | 151.00896 | 4493 ft | 178 kts | 27° |
| 2026-05-05 07:18 | -30.80595 | 151.01577 | 4793 ft | 173 kts | 28° |
| 2026-05-05 07:18 | -30.79523 | 151.02253 | 4919 ft | 180 kts | 28° |
| 2026-05-05 07:19 | -30.78407 | 151.02980 | 4789 ft | 189 kts | 28° |
| 2026-05-05 07:19 | -30.77198 | 151.03653 | 4517 ft | 194 kts | 21° |
| 2026-05-05 07:19 | -30.75989 | 151.04333 | 4292 ft | 193 kts | 28° |
| 2026-05-05 07:19 | -30.74820 | 151.05047 | 4320 ft | 186 kts | 26° |
| 2026-05-05 07:20 | -30.73680 | 151.05726 | 4377 ft | 184 kts | 26° |
| 2026-05-05 07:20 | -30.72532 | 151.06414 | 4361 ft | 187 kts | 25° |
| 2026-05-05 07:20 | -30.71370 | 151.07099 | 4251 ft | 188 kts | 26° |
| 2026-05-05 07:20 | -30.70189 | 151.07765 | 4257 ft | 189 kts | 26° |
| 2026-05-05 07:21 | -30.69036 | 151.08500 | 4184 ft | 191 kts | 29° |
| 2026-05-05 07:21 | -30.67902 | 151.09301 | 4137 ft | 191 kts | 31° |
| 2026-05-05 07:21 | -30.66763 | 151.10104 | 4119 ft | 189 kts | 30° |
| 2026-05-05 07:21 | -30.65619 | 151.10824 | 4128 ft | 191 kts | 27° |
| 2026-05-05 07:22 | -30.64413 | 151.11529 | 3936 ft | 196 kts | 25° |
| 2026-05-05 07:22 | -30.63171 | 151.12169 | 3748 ft | 195 kts | 22° |
| 2026-05-05 07:22 | -30.61928 | 151.12763 | 3735 ft | 190 kts | 23° |
| 2026-05-05 07:22 | -30.60735 | 151.13377 | 3782 ft | 187 kts | 24° |
| 2026-05-05 07:23 | -30.59587 | 151.14075 | 3957 ft | 183 kts | 30° |
| 2026-05-05 07:23 | -30.58461 | 151.14808 | 3907 ft | 192 kts | 27° |
| 2026-05-05 07:23 | -30.57239 | 151.15534 | 3643 ft | 198 kts | 27° |
| 2026-05-05 07:23 | -30.56036 | 151.16250 | 3590 ft | 191 kts | 27° |
| 2026-05-05 07:24 | -30.54889 | 151.16910 | 3828 ft | 180 kts | 25° |
| 2026-05-05 07:24 | -30.53751 | 151.17423 | 4235 ft | 170 kts | 18° |
| 2026-05-05 07:24 | -30.52657 | 151.17941 | 4633 ft | 170 kts | 24° |
| 2026-05-05 07:24 | -30.51520 | 151.18561 | 4425 ft | 194 kts | 25° |
| 2026-05-05 07:25 | -30.50298 | 151.19301 | 3963 ft | 197 kts | 27° |
| 2026-05-05 07:25 | -30.49112 | 151.20031 | 3991 ft | 187 kts | 27° |
| 2026-05-05 07:25 | -30.47961 | 151.20673 | 4218 ft | 178 kts | 27° |
| 2026-05-05 07:25 | -30.46928 | 151.21453 | 4398 ft | 183 kts | 34° |
| 2026-05-05 07:26 | -30.45869 | 151.22359 | 4174 ft | 195 kts | 35° |
| 2026-05-05 07:26 | -30.44732 | 151.23257 | 3874 ft | 197 kts | 30° |
| 2026-05-05 07:26 | -30.43540 | 151.23984 | 3744 ft | 192 kts | 26° |
| 2026-05-05 07:26 | -30.42383 | 151.24722 | 3874 ft | 184 kts | 30° |
| 2026-05-05 07:27 | -30.41300 | 151.25434 | 4148 ft | 177 kts | 27° |
| 2026-05-05 07:27 | -30.40237 | 151.26121 | 4486 ft | 172 kts | 29° |
| 2026-05-05 07:27 | -30.39220 | 151.26812 | 4828 ft | 170 kts | 29° |
| 2026-05-05 07:27 | -30.38199 | 151.27543 | 5051 ft | 172 kts | 30° |
| 2026-05-05 07:28 | -30.37180 | 151.28284 | 5199 ft | 175 kts | 30° |
| 2026-05-05 07:28 | -30.36135 | 151.29027 | 5381 ft | 173 kts | 30° |
| 2026-05-05 07:28 | -30.35105 | 151.29709 | 5624 ft | 171 kts | 26° |
| 2026-05-05 07:28 | -30.34037 | 151.30322 | 5779 ft | 173 kts | 24° |
| 2026-05-05 07:29 | -30.32960 | 151.30903 | 5825 ft | 167 kts | 21° |
| 2026-05-05 07:29 | -30.31914 | 151.31421 | 5908 ft | 162 kts | 21° |
| 2026-05-05 07:29 | -30.30910 | 151.31955 | 6098 ft | 157 kts | 23° |
| 2026-05-05 07:29 | -30.29925 | 151.32522 | 6171 ft | 163 kts | 25° |
| 2026-05-05 07:30 | -30.28896 | 151.33172 | 6061 ft | 171 kts | 26° |
| 2026-05-05 07:30 | -30.26829 | 151.34524 | 5976 ft | 168 kts | 30° |
| 2026-05-05 07:30 | -30.25873 | 151.35252 | 5969 ft | 165 kts | 32° |
| 2026-05-05 07:31 | -30.24916 | 151.36036 | 5798 ft | 169 kts | 34° |
| 2026-05-05 07:31 | -30.23976 | 151.36853 | 5609 ft | 167 kts | 35° |
| 2026-05-05 07:31 | -30.23080 | 151.37686 | 5597 ft | 162 kts | 38° |
| 2026-05-05 07:31 | -30.22248 | 151.38538 | 5640 ft | 158 kts | 41° |
| 2026-05-05 07:32 | -30.21477 | 151.39422 | 5708 ft | 157 kts | 44° |
| 2026-05-05 07:32 | -30.20748 | 151.40369 | 5775 ft | 157 kts | 48° |
| 2026-05-05 07:32 | -30.19960 | 151.41199 | 5812 ft | 154 kts | 31° |
| 2026-05-05 07:32 | -30.19015 | 151.41801 | 5733 ft | 156 kts | 25° |
| 2026-05-05 07:33 | -30.18049 | 151.42386 | 5629 ft | 158 kts | 24° |
| 2026-05-05 07:33 | -30.17038 | 151.42894 | 5515 ft | 157 kts | 19° |
| 2026-05-05 07:33 | -30.16008 | 151.43266 | 5406 ft | 157 kts | 12° |
| 2026-05-05 07:33 | -30.14938 | 151.43508 | 5312 ft | 156 kts | 6° |
| 2026-05-05 07:34 | -30.13854 | 151.43659 | 5229 ft | 156 kts | 7° |
| 2026-05-05 07:34 | -30.12824 | 151.44036 | 5136 ft | 158 kts | 20° |
| 2026-05-05 07:34 | -30.11835 | 151.44604 | 5083 ft | 158 kts | 26° |
| 2026-05-05 07:34 | -30.10872 | 151.45169 | 5101 ft | 153 kts | 25° |
| 2026-05-05 07:35 | -30.09939 | 151.45732 | 5211 ft | 147 kts | 28° |
| 2026-05-05 07:35 | -30.09093 | 151.46325 | 5390 ft | 140 kts | 28° |
| 2026-05-05 07:35 | -30.08240 | 151.46839 | 5616 ft | 136 kts | 26° |
| 2026-05-05 07:35 | -30.07447 | 151.47391 | 5919 ft | 133 kts | 30° |
| 2026-05-05 07:36 | -30.06674 | 151.47960 | 6251 ft | 130 kts | 27° |
| 2026-05-05 07:36 | -30.05860 | 151.48475 | 6317 ft | 138 kts | 26° |
| 2026-05-05 07:36 | -30.05002 | 151.49035 | 5914 ft | 145 kts | 26° |
| 2026-05-05 07:36 | -30.04118 | 151.49524 | 5857 ft | 132 kts | 21° |
| 2026-05-05 07:37 | -30.03377 | 151.49919 | 6329 ft | 104 kts | 22° |
| 2026-05-05 07:37 | -30.02794 | 151.50253 | 6966 ft | 82 kts | 24° |
| 2026-05-05 07:37 | -30.02338 | 151.50535 | 7570 ft | 69 kts | 25° |
| 2026-05-05 07:37 | -30.01862 | 151.50896 | 7977 ft | 94 kts | 31° |
| 2026-05-05 07:38 | -30.01232 | 151.51404 | 7220 ft | 127 kts | 32° |
| 2026-05-05 07:38 | -30.00492 | 151.52006 | 6300 ft | 126 kts | 32° |
| 2026-05-05 07:38 | -29.99789 | 151.52604 | 6034 ft | 126 kts | 35° |
| 2026-05-05 07:38 | -29.99116 | 151.53258 | 5899 ft | 123 kts | 38° |
| 2026-05-05 07:39 | -29.98478 | 151.53934 | 5735 ft | 130 kts | 41° |
| 2026-05-05 07:39 | -29.97894 | 151.54686 | 5665 ft | 121 kts | 49° |
| 2026-05-05 07:39 | -29.97425 | 151.55444 | 5703 ft | 113 kts | 52° |
| 2026-05-05 07:39 | -29.96915 | 151.56100 | 5785 ft | 106 kts | 41° |
| 2026-05-05 07:40 | -29.96341 | 151.56584 | 5922 ft | 99 kts | 28° |
| 2026-05-05 07:40 | -29.95753 | 151.56933 | 6107 ft | 93 kts | 26° |
| 2026-05-05 07:40 | -29.95249 | 151.57384 | 6321 ft | 91 kts | 38° |
| 2026-05-05 07:40 | -29.94810 | 151.57905 | 6337 ft | 94 kts | 44° |
| 2026-05-05 07:41 | -29.94368 | 151.58495 | 6273 ft | 99 kts | 46° |
| 2026-05-05 07:41 | -29.93863 | 151.59066 | 6155 ft | 103 kts | 38° |
| 2026-05-05 07:41 | -29.93282 | 151.59574 | 5996 ft | 107 kts | 31° |
| 2026-05-05 07:41 | -29.92682 | 151.60095 | 5864 ft | 108 kts | 35° |
| 2026-05-05 07:42 | -29.92103 | 151.60648 | 5712 ft | 109 kts | 38° |
| 2026-05-05 07:42 | -29.91536 | 151.61225 | 5634 ft | 106 kts | 38° |
| 2026-05-05 07:42 | -29.90993 | 151.61729 | 5749 ft | 95 kts | 35° |
| 2026-05-05 07:42 | -29.90496 | 151.62250 | 5894 ft | 98 kts | 41° |
| 2026-05-05 07:43 | -29.90003 | 151.62745 | 6051 ft | 91 kts | 33° |
| 2026-05-05 07:43 | -29.89470 | 151.63091 | 6259 ft | 85 kts | 24° |
| 2026-05-05 07:43 | -29.88950 | 151.63435 | 6398 ft | 89 kts | 27° |
| 2026-05-05 07:43 | -29.88397 | 151.63807 | 6443 ft | 95 kts | 27° |
| 2026-05-05 07:44 | -29.87796 | 151.64180 | 6444 ft | 100 kts | 25° |
| 2026-05-05 07:44 | -29.87173 | 151.64555 | 6399 ft | 103 kts | 24° |
| 2026-05-05 07:44 | -29.86526 | 151.64954 | 6323 ft | 107 kts | 25° |
| 2026-05-05 07:44 | -29.85869 | 151.65365 | 6200 ft | 110 kts | 25° |
| 2026-05-05 07:45 | -29.85186 | 151.65795 | 6045 ft | 113 kts | 26° |
| 2026-05-05 07:45 | -29.84488 | 151.66239 | 5919 ft | 116 kts | 25° |
| 2026-05-05 07:45 | -29.83783 | 151.66686 | 5803 ft | 116 kts | 24° |
| 2026-05-05 07:45 | -29.83066 | 151.67047 | 5792 ft | 108 kts | 21° |
| 2026-05-05 07:46 | -29.82414 | 151.67415 | 5882 ft | 100 kts | 24° |
| 2026-05-05 07:46 | -29.81809 | 151.67708 | 6065 ft | 90 kts | 14° |
| 2026-05-05 07:46 | -29.81214 | 151.67770 | 6272 ft | 82 kts | 360° |
| 2026-05-05 07:46 | -29.80675 | 151.67805 | 6503 ft | 74 kts | 1° |
| 2026-05-05 07:47 | -29.80186 | 151.67911 | 6502 ft | 71 kts | 13° |
| 2026-05-05 07:47 | -29.79727 | 151.68083 | 6417 ft | 67 kts | 12° |
| 2026-05-05 07:47 | -29.79277 | 151.68229 | 6290 ft | 69 kts | 15° |
| 2026-05-05 07:47 | -29.78831 | 151.68445 | 6103 ft | 67 kts | 19° |
| 2026-05-05 07:48 | -29.78419 | 151.68633 | 5986 ft | 62 kts | 17° |
| 2026-05-05 07:48 | -29.78016 | 151.68795 | 5859 ft | 61 kts | 15° |
| 2026-05-05 07:48 | -29.77610 | 151.68936 | 5723 ft | 60 kts | 13° |
| 2026-05-05 07:48 | -29.77240 | 151.69131 | 5614 ft | 56 kts | 23° |
| 2026-05-05 07:49 | -29.76904 | 151.69309 | 5523 ft | 50 kts | 21° |
| 2026-05-05 07:49 | -29.76606 | 151.69442 | 5373 ft | 43 kts | 19° |
| 2026-05-05 07:49 | -29.76342 | 151.69529 | 5213 ft | 36 kts | 14° |
| 2026-05-05 07:49 | -29.76119 | 151.69550 | 5040 ft | 30 kts | 9° |
| 2026-05-05 07:50 | -29.75908 | 151.69575 | 4817 ft | 39 kts | 10° |
| 2026-05-05 07:50 | -29.75581 | 151.69708 | 4605 ft | 60 kts | 17° |
| 2026-05-05 07:50 | -29.75147 | 151.69895 | 4459 ft | 71 kts | 17° |
| 2026-05-05 07:50 | -29.74672 | 151.70044 | 4361 ft | 71 kts | 11° |
| 2026-05-05 07:51 | -29.74199 | 151.70183 | 4269 ft | 69 kts | 12° |
| 2026-05-05 07:51 | -29.73742 | 151.70325 | 4261 ft | 65 kts | 12° |
| 2026-05-05 07:51 | -29.73329 | 151.70433 | 4317 ft | 59 kts | 10° |
| 2026-05-05 07:51 | -29.72934 | 151.70508 | 4371 ft | 59 kts | 8° |
| 2026-05-05 07:52 | -29.72419 | 151.70585 | 4396 ft | 91 kts | 5° |
| 2026-05-05 07:52 | -29.71718 | 151.70670 | 4252 ft | 108 kts | 3° |
| 2026-05-05 07:52 | -29.71012 | 151.70628 | 4237 ft | 94 kts | 350° |
| 2026-05-05 07:52 | -29.70410 | 151.70458 | 4272 ft | 88 kts | 345° |
| 2026-05-05 07:53 | -29.69840 | 151.70291 | 4181 ft | 79 kts | 340° |
| 2026-05-05 07:53 | -29.69342 | 151.70088 | 3949 ft | 80 kts | 340° |
| 2026-05-05 07:53 | -29.68864 | 151.69809 | 3853 ft | 74 kts | 332° |
| 2026-05-05 07:53 | -29.68426 | 151.69576 | 3661 ft | 62 kts | 335° |
| 2026-05-05 07:54 | -29.68092 | 151.69394 | 3544 ft | 45 kts | 337° |
| 2026-05-05 07:54 | -29.67933 | 151.69297 | 3478 ft | 32 kts | 338° |
| 2026-05-05 07:54 | -29.67756 | 151.69193 | 3446 ft | 19 kts | 341° |
| 2026-05-05 07:54 | -29.67614 | 151.69114 | 3448 ft | 19 kts | 36° |
| 2026-05-05 07:55 | -29.67577 | 151.69129 | 3440 ft | 11 kts | 79° |
| 2026-05-05 07:55 | -29.67506 | 151.69203 | 3445 ft | 26 kts | 65° |
| 2026-05-05 07:55 | -29.67438 | 151.69257 | 3440 ft | 8 kts | 187° |
| 2026-05-05 07:55 | -29.67458 | 151.69250 | 3442 ft | 4 kts | 221° |
| 2026-05-05 07:56 | -29.67466 | 151.69254 | 3439 ft | 0 kts | 216° |